sensor_id;sensor_type;location;lat;lon;timestamp;pressure;altitude;pressure_sealevel;temperature;humidity
18765;BME280;9511;54.242;12.448;2023-01-31T04:05:17;101216.75;;;2.64;92.48
18765;BME280;9511;54.242;12.448;2023-01-31T04:07:51;101216.94;;;2.67;92.35
18765;BME280;9511;54.242;12.448;2023-01-31T04:10:23;101217.75;;;2.66;92.32
18765;BME280;9511;54.242;12.448;2023-01-31T04:12:51;101210.59;;;2.63;92.51
18765;BME280;9511;54.242;12.448;2023-01-31T04:15:19;101215.06;;;2.64;92.85
18765;BME280;9511;54.242;12.448;2023-01-31T04:17:46;101214.31;;;2.67;92.80
18765;BME280;9511;54.242;12.448;2023-01-31T04:20:15;101203.78;;;2.65;92.67
18765;BME280;9511;54.242;12.448;2023-01-31T04:22:43;101206.31;;;2.64;92.82
18765;BME280;9511;54.242;12.448;2023-01-31T04:25:10;101204.59;;;2.64;92.82
18765;BME280;9511;54.242;12.448;2023-01-31T04:27:37;101195.88;;;2.64;92.98
18765;BME280;9511;54.242;12.448;2023-01-31T04:30:06;101198.28;;;2.61;93.27
18765;BME280;9511;54.242;12.448;2023-01-31T04:32:33;101186.31;;;2.64;92.90
18765;BME280;9511;54.242;12.448;2023-01-31T04:35:00;101195.75;;;2.62;93.15
18765;BME280;9511;54.242;12.448;2023-01-31T04:37:29;101185.31;;;2.62;93.25
18765;BME280;9511;54.242;12.448;2023-01-31T04:39:56;101195.44;;;2.58;93.08
18765;BME280;9511;54.242;12.448;2023-01-31T04:42:24;101186.72;;;2.57;93.58
18765;BME280;9511;54.242;12.448;2023-01-31T04:44:51;101192.84;;;2.58;93.42
18765;BME280;9511;54.242;12.448;2023-01-31T04:47:18;101200.66;;;2.58;93.65
18765;BME280;9511;54.242;12.448;2023-01-31T04:49:45;101213.72;;;2.58;93.77
18765;BME280;9511;54.242;12.448;2023-01-31T04:52:12;101213.56;;;2.55;93.84
18765;BME280;9511;54.242;12.448;2023-01-31T04:54:41;101204.91;;;2.56;93.80
18765;BME280;9511;54.242;12.448;2023-01-31T04:57:08;101213.84;;;2.59;93.72
18765;BME280;9511;54.242;12.448;2023-01-31T04:59:36;101199.50;;;2.53;93.57
18765;BME280;9511;54.242;12.448;2023-01-31T05:02:03;101207.34;;;2.53;93.62
18765;BME280;9511;54.242;12.448;2023-01-31T05:04:30;101212.34;;;2.50;93.80
18765;BME280;9511;54.242;12.448;2023-01-31T05:06:57;101218.78;;;2.55;93.80
18765;BME280;9511;54.242;12.448;2023-01-31T05:09:25;101217.06;;;2.55;93.98
18765;BME280;9511;54.242;12.448;2023-01-31T05:11:53;101215.94;;;2.52;94.10
18765;BME280;9511;54.242;12.448;2023-01-31T05:14:20;101221.97;;;2.51;94.46
18765;BME280;9511;54.242;12.448;2023-01-31T05:16:48;101218.56;;;2.52;94.10
18765;BME280;9511;54.242;12.448;2023-01-31T05:19:15;101217.88;;;2.54;94.49
18765;BME280;9511;54.242;12.448;2023-01-31T05:21:42;101208.25;;;2.53;94.47
18765;BME280;9511;54.242;12.448;2023-01-31T05:24:25;101204.91;;;2.56;94.17
18765;BME280;9511;54.242;12.448;2023-01-31T05:26:54;101210.84;;;2.53;94.12
18765;BME280;9511;54.242;12.448;2023-01-31T05:29:24;101212.81;;;2.57;94.17
18765;BME280;9511;54.242;12.448;2023-01-31T05:31:51;101207.09;;;2.63;94.05
18765;BME280;9511;54.242;12.448;2023-01-31T05:34:19;101212.53;;;2.66;94.05
18765;BME280;9511;54.242;12.448;2023-01-31T05:36:46;101208.72;;;2.61;93.95
18765;BME280;9511;54.242;12.448;2023-01-31T05:39:14;101202.09;;;2.66;93.77
18765;BME280;9511;54.242;12.448;2023-01-31T05:41:41;101203.72;;;2.64;93.92
18765;BME280;9511;54.242;12.448;2023-01-31T05:44:10;101205.59;;;2.66;94.02
18765;BME280;9511;54.242;12.448;2023-01-31T05:46:37;101209.72;;;2.63;93.62
18765;BME280;9511;54.242;12.448;2023-01-31T05:49:05;101202.97;;;2.66;93.33
18765;BME280;9511;54.242;12.448;2023-01-31T05:51:32;101202.91;;;2.65;93.57
18765;BME280;9511;54.242;12.448;2023-01-31T05:53:59;101195.44;;;2.58;93.50
18765;BME280;9511;54.242;12.448;2023-01-31T05:56:27;101195.28;;;2.55;93.83
18765;BME280;9511;54.242;12.448;2023-01-31T05:58:54;101192.75;;;2.56;93.61
18765;BME280;9511;54.242;12.448;2023-01-31T06:01:24;101200.50;;;2.55;93.46
18765;BME280;9511;54.242;12.448;2023-01-31T06:03:52;101193.34;;;2.52;93.47
18765;BME280;9511;54.242;12.448;2023-01-31T06:06:19;101209.75;;;2.50;93.30
18765;BME280;9511;54.242;12.448;2023-01-31T06:08:47;101200.41;;;2.53;93.16
18765;BME280;9511;54.242;12.448;2023-01-31T06:11:14;101194.41;;;2.69;93.57
18765;BME280;9511;54.242;12.448;2023-01-31T06:13:42;101199.94;;;2.87;92.95
18765;BME280;9511;54.242;12.448;2023-01-31T06:16:09;101202.19;;;2.96;91.73
18765;BME280;9511;54.242;12.448;2023-01-31T06:18:38;101203.97;;;3.10;91.95
18765;BME280;9511;54.242;12.448;2023-01-31T06:21:05;101208.78;;;3.04;91.00
18765;BME280;9511;54.242;12.448;2023-01-31T06:23:33;101194.59;;;3.13;90.92
18765;BME280;9511;54.242;12.448;2023-01-31T06:26:00;101193.78;;;3.14;90.62
18765;BME280;9511;54.242;12.448;2023-01-31T06:28:27;101194.00;;;3.17;90.52
18765;BME280;9511;54.242;12.448;2023-01-31T06:30:54;101196.50;;;3.16;90.79
18765;BME280;9511;54.242;12.448;2023-01-31T06:33:22;101198.75;;;3.10;90.30
18765;BME280;9511;54.242;12.448;2023-01-31T06:35:50;101211.09;;;3.12;90.74
18765;BME280;9511;54.242;12.448;2023-01-31T06:38:17;101212.88;;;2.99;90.90
18765;BME280;9511;54.242;12.448;2023-01-31T06:40:45;101204.22;;;3.00;91.35
18765;BME280;9511;54.242;12.448;2023-01-31T06:43:12;101207.25;;;2.92;91.70
18765;BME280;9511;54.242;12.448;2023-01-31T06:45:41;101200.19;;;2.91;91.68
18765;BME280;9511;54.242;12.448;2023-01-31T06:48:09;101203.63;;;2.90;92.41
18765;BME280;9511;54.242;12.448;2023-01-31T06:50:36;101202.63;;;2.88;92.68
18765;BME280;9511;54.242;12.448;2023-01-31T06:53:05;101203.63;;;2.90;92.69
18765;BME280;9511;54.242;12.448;2023-01-31T06:55:32;101197.69;;;2.93;93.30
18765;BME280;9511;54.242;12.448;2023-01-31T06:57:59;101207.84;;;2.88;93.33
18765;BME280;9511;54.242;12.448;2023-01-31T07:00:27;101200.19;;;2.91;94.19
18765;BME280;9511;54.242;12.448;2023-01-31T07:02:54;101193.00;;;2.87;94.55
18765;BME280;9511;54.242;12.448;2023-01-31T07:05:22;101191.38;;;2.89;94.57
18765;BME280;9511;54.242;12.448;2023-01-31T07:07:49;101192.34;;;2.91;94.96
18765;BME280;9511;54.242;12.448;2023-01-31T07:10:18;101195.69;;;2.89;95.36
18765;BME280;9511;54.242;12.448;2023-01-31T07:12:45;101200.41;;;2.95;95.95
18765;BME280;9511;54.242;12.448;2023-01-31T07:15:13;101196.81;;;2.92;96.00
18765;BME280;9511;54.242;12.448;2023-01-31T07:17:40;101201.00;;;2.90;96.13
18765;BME280;9511;54.242;12.448;2023-01-31T07:20:10;101189.38;;;2.85;96.76
18765;BME280;9511;54.242;12.448;2023-01-31T07:22:37;101193.97;;;2.89;96.98
18765;BME280;9511;54.242;12.448;2023-01-31T07:25:05;101209.56;;;2.88;96.51
18765;BME280;9511;54.242;12.448;2023-01-31T07:27:34;101204.88;;;2.82;96.89
18765;BME280;9511;54.242;12.448;2023-01-31T07:30:02;101216.31;;;2.84;97.09
18765;BME280;9511;54.242;12.448;2023-01-31T07:32:29;101197.41;;;2.88;97.26
18765;BME280;9511;54.242;12.448;2023-01-31T07:34:56;101199.22;;;2.89;97.13
18765;BME280;9511;54.242;12.448;2023-01-31T07:37:24;101194.59;;;2.85;97.31
18765;BME280;9511;54.242;12.448;2023-01-31T07:39:51;101186.66;;;2.84;97.46
18765;BME280;9511;54.242;12.448;2023-01-31T07:42:19;101195.59;;;2.87;97.35
18765;BME280;9511;54.242;12.448;2023-01-31T07:44:49;101179.81;;;2.86;97.41
18765;BME280;9511;54.242;12.448;2023-01-31T07:47:16;101185.41;;;2.92;97.16
18765;BME280;9511;54.242;12.448;2023-01-31T07:49:44;101175.09;;;2.93;97.40
18765;BME280;9511;54.242;12.448;2023-01-31T07:52:11;101174.44;;;2.98;97.38
18765;BME280;9511;54.242;12.448;2023-01-31T07:54:38;101178.06;;;3.00;96.91
18765;BME280;9511;54.242;12.448;2023-01-31T07:57:05;101180.03;;;3.04;97.33
18765;BME280;9511;54.242;12.448;2023-01-31T07:59:33;101180.03;;;3.04;97.23
18765;BME280;9511;54.242;12.448;2023-01-31T08:02:01;101177.84;;;3.10;96.75
18765;BME280;9511;54.242;12.448;2023-01-31T08:04:46;101166.56;;;3.11;97.13
18765;BME280;9511;54.242;12.448;2023-01-31T08:07:13;101166.56;;;3.11;97.29
18765;BME280;9511;54.242;12.448;2023-01-31T08:09:40;101157.91;;;3.12;96.98
18765;BME280;9511;54.242;12.448;2023-01-31T08:12:08;101143.50;;;3.18;97.06
18765;BME280;9511;54.242;12.448;2023-01-31T08:14:35;101145.38;;;3.21;97.16
18765;BME280;9511;54.242;12.448;2023-01-31T08:17:04;101144.59;;;3.22;97.30
18765;BME280;9511;54.242;12.448;2023-01-31T08:19:33;101142.78;;;3.21;97.14
18765;BME280;9511;54.242;12.448;2023-01-31T08:22:01;101140.28;;;3.23;96.60
18765;BME280;9511;54.242;12.448;2023-01-31T08:24:29;101149.09;;;3.25;96.93
18765;BME280;9511;54.242;12.448;2023-01-31T08:26:56;101137.28;;;3.16;97.87
18765;BME280;9511;54.242;12.448;2023-01-31T08:29:24;101124.84;;;3.12;98.70
18765;BME280;9511;54.242;12.448;2023-01-31T08:31:52;101126.19;;;3.06;99.65
18765;BME280;9511;54.242;12.448;2023-01-31T08:34:21;101113.41;;;3.10;100.00
18765;BME280;9511;54.242;12.448;2023-01-31T08:36:48;101116.09;;;3.12;100.00
18765;BME280;9511;54.242;12.448;2023-01-31T08:39:15;101104.19;;;3.02;100.00
18765;BME280;9511;54.242;12.448;2023-01-31T08:41:43;101115.66;;;3.04;100.00
18765;BME280;9511;54.242;12.448;2023-01-31T08:44:11;101109.22;;;2.99;100.00
18765;BME280;9511;54.242;12.448;2023-01-31T08:46:38;101092.81;;;3.02;100.00
18765;BME280;9511;54.242;12.448;2023-01-31T08:49:06;101101.28;;;2.98;100.00
18765;BME280;9511;54.242;12.448;2023-01-31T08:51:35;101089.31;;;3.01;100.00
18765;BME280;9511;54.242;12.448;2023-01-31T08:54:02;101080.56;;;3.01;100.00
18765;BME280;9511;54.242;12.448;2023-01-31T08:56:30;101068.69;;;3.06;100.00
18765;BME280;9511;54.242;12.448;2023-01-31T08:58:57;101082.66;;;3.06;100.00
18765;BME280;9511;54.242;12.448;2023-01-31T09:01:24;101075.91;;;3.10;100.00
18765;BME280;9511;54.242;12.448;2023-01-31T09:03:52;101070.56;;;3.08;100.00
18765;BME280;9511;54.242;12.448;2023-01-31T09:06:23;101060.31;;;3.11;100.00
18765;BME280;9511;54.242;12.448;2023-01-31T09:08:54;101055.38;;;3.16;100.00
18765;BME280;9511;54.242;12.448;2023-01-31T09:11:21;101053.91;;;3.21;100.00
18765;BME280;9511;54.242;12.448;2023-01-31T09:13:49;101044.44;;;3.23;100.00
18765;BME280;9511;54.242;12.448;2023-01-31T09:16:17;101044.97;;;3.32;100.00
18765;BME280;9511;54.242;12.448;2023-01-31T09:18:46;101036.00;;;3.27;100.00
18765;BME280;9511;54.242;12.448;2023-01-31T09:21:15;101034.34;;;3.29;100.00
18765;BME280;9511;54.242;12.448;2023-01-31T09:23:43;101031.81;;;3.31;100.00
18765;BME280;9511;54.242;12.448;2023-01-31T09:26:12;101025.16;;;3.36;100.00
18765;BME280;9511;54.242;12.448;2023-01-31T09:28:40;101024.16;;;3.34;100.00
18765;BME280;9511;54.242;12.448;2023-01-31T09:31:10;101021.56;;;3.34;100.00
18765;BME280;9511;54.242;12.448;2023-01-31T09:33:37;101010.72;;;3.42;100.00
18765;BME280;9511;54.242;12.448;2023-01-31T09:36:07;101020.19;;;3.40;100.00
18765;BME280;9511;54.242;12.448;2023-01-31T09:38:35;101012.50;;;3.43;100.00
18765;BME280;9511;54.242;12.448;2023-01-31T09:41:04;101011.72;;;3.44;100.00
18765;BME280;9511;54.242;12.448;2023-01-31T09:43:37;101000.91;;;3.38;100.00
18765;BME280;9511;54.242;12.448;2023-01-31T09:46:11;101004.50;;;3.40;100.00
18765;BME280;9511;54.242;12.448;2023-01-31T09:48:44;100991.25;;;3.37;100.00
18765;BME280;9511;54.242;12.448;2023-01-31T09:51:12;100998.91;;;3.34;100.00
18765;BME280;9511;54.242;12.448;2023-01-31T09:53:41;100995.28;;;3.32;100.00
18765;BME280;9511;54.242;12.448;2023-01-31T09:56:22;100987.00;;;3.39;100.00
18765;BME280;9511;54.242;12.448;2023-01-31T09:58:58;100986.81;;;3.36;100.00
18765;BME280;9511;54.242;12.448;2023-01-31T10:01:35;100971.31;;;3.39;100.00
18765;BME280;9511;54.242;12.448;2023-01-31T10:06:57;100971.56;;;3.44;100.00
18765;BME280;9511;54.242;12.448;2023-01-31T10:09:29;100957.59;;;3.43;100.00
18765;BME280;9511;54.242;12.448;2023-01-31T10:12:02;100959.41;;;3.44;100.00
18765;BME280;9511;54.242;12.448;2023-01-31T10:14:35;100962.81;;;3.43;100.00
18765;BME280;9511;54.242;12.448;2023-01-31T10:17:08;100957.59;;;3.43;100.00
18765;BME280;9511;54.242;12.448;2023-01-31T10:19:42;100962.03;;;3.44;100.00
18765;BME280;9511;54.242;12.448;2023-01-31T10:22:15;100960.06;;;3.40;100.00
18765;BME280;9511;54.242;12.448;2023-01-31T10:24:48;100947.69;;;3.38;100.00
18765;BME280;9511;54.242;12.448;2023-01-31T10:27:20;100937.06;;;3.35;100.00
18765;BME280;9511;54.242;12.448;2023-01-31T10:30:02;100940.66;;;3.37;100.00
18765;BME280;9511;54.242;12.448;2023-01-31T10:32:34;100927.59;;;3.37;100.00
18765;BME280;9511;54.242;12.448;2023-01-31T10:35:11;100935.63;;;3.40;100.00
18765;BME280;9511;54.242;12.448;2023-01-31T10:37:43;100920.63;;;3.37;100.00
18765;BME280;9511;54.242;12.448;2023-01-31T10:40:15;100915.41;;;3.37;100.00
18765;BME280;9511;54.242;12.448;2023-01-31T10:42:47;100910.38;;;3.40;100.00
18765;BME280;9511;54.242;12.448;2023-01-31T10:45:19;100901.88;;;3.44;100.00
18765;BME280;9511;54.242;12.448;2023-01-31T10:47:50;100885.03;;;3.39;100.00
18765;BME280;9511;54.242;12.448;2023-01-31T10:50:22;100878.81;;;3.37;100.00
18765;BME280;9511;54.242;12.448;2023-01-31T10:53:08;100873.56;;;3.37;100.00
18765;BME280;9511;54.242;12.448;2023-01-31T10:55:49;100869.25;;;3.38;100.00
18765;BME280;9511;54.242;12.448;2023-01-31T10:58:21;100857.81;;;3.36;100.00
18765;BME280;9511;54.242;12.448;2023-01-31T11:00:50;100845.81;;;3.39;100.00
18765;BME280;9511;54.242;12.448;2023-01-31T11:03:18;100847.78;;;3.43;100.00
18765;BME280;9511;54.242;12.448;2023-01-31T11:05:48;100841.22;;;3.35;100.00
18765;BME280;9511;54.242;12.448;2023-01-31T11:08:24;100840.59;;;3.39;100.00
18765;BME280;9511;54.242;12.448;2023-01-31T11:10:53;100823.25;;;3.41;100.00
18765;BME280;9511;54.242;12.448;2023-01-31T11:13:21;100804.97;;;3.41;100.00
18765;BME280;9511;54.242;12.448;2023-01-31T11:15:52;100792.84;;;3.43;100.00
18765;BME280;9511;54.242;12.448;2023-01-31T11:18:29;100783.22;;;3.42;100.00
18765;BME280;9511;54.242;12.448;2023-01-31T11:20:59;100764.84;;;3.41;100.00
18765;BME280;9511;54.242;12.448;2023-01-31T11:23:29;100774.06;;;3.34;100.00
18765;BME280;9511;54.242;12.448;2023-01-31T11:25:57;100762.97;;;3.38;100.00
18765;BME280;9511;54.242;12.448;2023-01-31T11:28:32;100746.47;;;3.39;100.00
18765;BME280;9511;54.242;12.448;2023-01-31T11:31:03;100753.09;;;3.33;100.00
18765;BME280;9511;54.242;12.448;2023-01-31T11:33:42;100743.53;;;3.33;100.00
18765;BME280;9511;54.242;12.448;2023-01-31T11:36:15;100751.38;;;3.33;100.00
18765;BME280;9511;54.242;12.448;2023-01-31T11:38:47;100738.38;;;3.35;100.00
18765;BME280;9511;54.242;12.448;2023-01-31T11:41:30;100728.47;;;3.29;100.00
18765;BME280;9511;54.242;12.448;2023-01-31T11:44:13;100716.25;;;3.28;100.00
18765;BME280;9511;54.242;12.448;2023-01-31T11:46:47;100712.81;;;3.29;100.00
18765;BME280;9511;54.242;12.448;2023-01-31T11:49:25;100716.94;;;3.26;100.00
18765;BME280;9511;54.242;12.448;2023-01-31T11:51:54;100696.22;;;3.29;100.00
18765;BME280;9511;54.242;12.448;2023-01-31T11:54:24;100696.38;;;3.32;100.00
18765;BME280;9511;54.242;12.448;2023-01-31T11:56:52;100688.78;;;3.36;100.00
18765;BME280;9511;54.242;12.448;2023-01-31T11:59:24;100683.53;;;3.36;100.00
18765;BME280;9511;54.242;12.448;2023-01-31T12:01:56;100680.09;;;3.37;100.00
18765;BME280;9511;54.242;12.448;2023-01-31T12:04:28;100676.84;;;3.41;100.00
18765;BME280;9511;54.242;12.448;2023-01-31T12:07:01;100678.16;;;3.33;100.00
18765;BME280;9511;54.242;12.448;2023-01-31T12:09:38;100667.84;;;3.36;100.00
18765;BME280;9511;54.242;12.448;2023-01-31T12:12:27;100669.56;;;3.36;100.00
18765;BME280;9511;54.242;12.448;2023-01-31T12:14:59;100653.97;;;3.37;100.00
18765;BME280;9511;54.242;12.448;2023-01-31T12:17:30;100650.69;;;3.41;100.00
18765;BME280;9511;54.242;12.448;2023-01-31T12:20:13;100637.88;;;3.46;100.00
18765;BME280;9511;54.242;12.448;2023-01-31T12:22:47;100634.66;;;3.52;100.00
18765;BME280;9511;54.242;12.448;2023-01-31T12:25:21;100628.44;;;3.50;100.00
18765;BME280;9511;54.242;12.448;2023-01-31T12:28:03;100616.75;;;3.59;100.00
18765;BME280;9511;54.242;12.448;2023-01-31T12:30:57;100588.03;;;3.61;100.00
18765;BME280;9511;54.242;12.448;2023-01-31T12:33:37;100589.03;;;3.63;100.00
18765;BME280;9511;54.242;12.448;2023-01-31T12:36:19;100587.53;;;3.68;100.00
18765;BME280;9511;54.242;12.448;2023-01-31T12:39:02;100586.66;;;3.67;100.00
18765;BME280;9511;54.242;12.448;2023-01-31T12:41:40;100582.50;;;3.72;100.00
18765;BME280;9511;54.242;12.448;2023-01-31T12:44:30;100570.50;;;3.76;100.00
18765;BME280;9511;54.242;12.448;2023-01-31T12:47:15;100557.66;;;3.81;100.00
18765;BME280;9511;54.242;12.448;2023-01-31T12:49:55;100563.94;;;3.84;100.00
18765;BME280;9511;54.242;12.448;2023-01-31T12:52:28;100549.03;;;3.83;100.00
18765;BME280;9511;54.242;12.448;2023-01-31T12:55:06;100553.53;;;3.86;100.00
18765;BME280;9511;54.242;12.448;2023-01-31T12:57:44;100546.72;;;3.89;100.00
18765;BME280;9511;54.242;12.448;2023-01-31T13:00:25;100534.75;;;3.94;100.00
18765;BME280;9511;54.242;12.448;2023-01-31T13:03:06;100537.53;;;3.97;100.00
18765;BME280;9511;54.242;12.448;2023-01-31T13:05:43;100526.50;;;4.05;100.00
18765;BME280;9511;54.242;12.448;2023-01-31T13:08:16;100519.63;;;4.07;100.00
18765;BME280;9511;54.242;12.448;2023-01-31T13:10:46;100525.00;;;4.10;100.00
18765;BME280;9511;54.242;12.448;2023-01-31T13:13:19;100503.41;;;4.14;100.00
18765;BME280;9511;54.242;12.448;2023-01-31T13:15:50;100509.59;;;4.16;100.00
18765;BME280;9511;54.242;12.448;2023-01-31T13:18:20;100499.41;;;4.22;100.00
18765;BME280;9511;54.242;12.448;2023-01-31T13:20:54;100494.50;;;4.30;100.00
18765;BME280;9511;54.242;12.448;2023-01-31T13:23:25;100509.81;;;4.40;100.00
18765;BME280;9511;54.242;12.448;2023-01-31T13:26:01;100490.81;;;4.44;100.00
18765;BME280;9511;54.242;12.448;2023-01-31T13:28:34;100478.75;;;4.47;100.00
18765;BME280;9511;54.242;12.448;2023-01-31T13:31:05;100465.03;;;4.53;100.00
18765;BME280;9511;54.242;12.448;2023-01-31T13:33:36;100477.47;;;4.59;100.00
18765;BME280;9511;54.242;12.448;2023-01-31T13:36:16;100461.09;;;4.63;100.00
18765;BME280;9511;54.242;12.448;2023-01-31T13:38:45;100472.34;;;4.60;100.00
18765;BME280;9511;54.242;12.448;2023-01-31T13:41:18;100469.78;;;4.62;100.00
18765;BME280;9511;54.242;12.448;2023-01-31T13:43:48;100456.00;;;4.66;100.00
18765;BME280;9511;54.242;12.448;2023-01-31T13:46:19;100464.13;;;4.72;100.00
18765;BME280;9511;54.242;12.448;2023-01-31T13:48:50;100445.78;;;4.72;100.00
18765;BME280;9511;54.242;12.448;2023-01-31T13:51:23;100463.53;;;4.79;100.00
18765;BME280;9511;54.242;12.448;2023-01-31T13:53:56;100457.47;;;4.80;100.00
18765;BME280;9511;54.242;12.448;2023-01-31T13:56:29;100453.31;;;4.85;100.00
18765;BME280;9511;54.242;12.448;2023-01-31T13:58:58;100453.59;;;4.91;100.00
18765;BME280;9511;54.242;12.448;2023-01-31T14:01:29;100449.38;;;4.95;100.00
18765;BME280;9511;54.242;12.448;2023-01-31T14:04:25;100447.06;;;5.02;100.00
18765;BME280;9511;54.242;12.448;2023-01-31T14:07:13;100450.66;;;5.04;100.00
18765;BME280;9511;54.242;12.448;2023-01-31T14:09:44;100433.28;;;5.06;100.00
18765;BME280;9511;54.242;12.448;2023-01-31T14:12:31;100434.28;;;5.10;100.00
18765;BME280;9511;54.242;12.448;2023-01-31T14:15:00;100434.28;;;5.10;100.00
18765;BME280;9511;54.242;12.448;2023-01-31T14:17:56;100428.13;;;5.10;100.00
18765;BME280;9511;54.242;12.448;2023-01-31T14:20:26;100413.25;;;5.09;100.00
18765;BME280;9511;54.242;12.448;2023-01-31T14:23:28;100406.28;;;5.09;100.00
18765;BME280;9511;54.242;12.448;2023-01-31T14:25:56;100408.84;;;5.07;100.00
18765;BME280;9511;54.242;12.448;2023-01-31T14:28:24;100382.88;;;5.14;100.00
18765;BME280;9511;54.242;12.448;2023-01-31T14:30:53;100388.75;;;5.29;100.00
18765;BME280;9511;54.242;12.448;2023-01-31T14:33:26;100392.16;;;5.49;100.00
18765;BME280;9511;54.242;12.448;2023-01-31T14:36:06;100398.44;;;5.52;100.00
18765;BME280;9511;54.242;12.448;2023-01-31T14:38:53;100378.97;;;5.47;100.00
18765;BME280;9511;54.242;12.448;2023-01-31T14:41:35;100391.91;;;5.43;100.00
18765;BME280;9511;54.242;12.448;2023-01-31T14:44:15;100371.94;;;5.46;100.00
18765;BME280;9511;54.242;12.448;2023-01-31T14:47:02;100383.34;;;5.47;100.00
18765;BME280;9511;54.242;12.448;2023-01-31T14:49:58;100392.03;;;5.46;100.00
18765;BME280;9511;54.242;12.448;2023-01-31T14:52:52;100388.59;;;5.47;100.00
18765;BME280;9511;54.242;12.448;2023-01-31T14:55:36;100397.28;;;5.46;100.00
18765;BME280;9511;54.242;12.448;2023-01-31T14:58:13;100390.31;;;5.46;100.00
18765;BME280;9511;54.242;12.448;2023-01-31T15:00:47;100394.59;;;5.44;100.00
18765;BME280;9511;54.242;12.448;2023-01-31T15:03:17;100410.31;;;5.44;100.00
18765;BME280;9511;54.242;12.448;2023-01-31T15:05:48;100414.56;;;5.41;100.00
18765;BME280;9511;54.242;12.448;2023-01-31T15:08:38;100434.72;;;5.42;100.00
18765;BME280;9511;54.242;12.448;2023-01-31T15:11:11;100412.00;;;5.42;100.00
18765;BME280;9511;54.242;12.448;2023-01-31T15:13:42;100414.81;;;5.47;100.00
18765;BME280;9511;54.242;12.448;2023-01-31T15:16:18;100422.72;;;5.48;100.00
18765;BME280;9511;54.242;12.448;2023-01-31T15:18:49;100415.72;;;5.47;100.00
18765;BME280;9511;54.242;12.448;2023-01-31T15:21:22;100380.75;;;5.48;100.00
18765;BME280;9511;54.242;12.448;2023-01-31T15:23:51;100380.06;;;5.52;100.00
18765;BME280;9511;54.242;12.448;2023-01-31T15:26:22;100364.19;;;5.49;100.00
18765;BME280;9511;54.242;12.448;2023-01-31T15:28:51;100388.59;;;5.47;100.00
18765;BME280;9511;54.242;12.448;2023-01-31T15:31:23;100374.75;;;5.51;100.00
18765;BME280;9511;54.242;12.448;2023-01-31T15:33:57;100368.59;;;5.50;100.00
18765;BME280;9511;54.242;12.448;2023-01-31T15:36:30;100373.97;;;5.53;100.00
18765;BME280;9511;54.242;12.448;2023-01-31T15:39:03;100363.72;;;5.59;100.00
18765;BME280;9511;54.242;12.448;2023-01-31T15:41:37;100359.31;;;5.58;100.00
18765;BME280;9511;54.242;12.448;2023-01-31T15:44:16;100354.91;;;5.57;100.00
18765;BME280;9511;54.242;12.448;2023-01-31T15:46:44;100363.34;;;5.50;100.00
18765;BME280;9511;54.242;12.448;2023-01-31T15:49:25;100376.81;;;5.37;100.00
18765;BME280;9511;54.242;12.448;2023-01-31T15:52:04;100391.19;;;5.03;100.00
18765;BME280;9511;54.242;12.448;2023-01-31T15:54:32;100377.06;;;4.79;100.00
18765;BME280;9511;54.242;12.448;2023-01-31T15:57:01;100397.00;;;4.55;100.00
18765;BME280;9511;54.242;12.448;2023-01-31T15:59:31;100393.75;;;4.60;100.00
18765;BME280;9511;54.242;12.448;2023-01-31T16:02:01;100400.16;;;4.67;100.00
18765;BME280;9511;54.242;12.448;2023-01-31T16:04:30;100365.94;;;4.64;100.00
18765;BME280;9511;54.242;12.448;2023-01-31T16:06:57;100369.53;;;4.66;100.00
18765;BME280;9511;54.242;12.448;2023-01-31T16:09:27;100372.41;;;4.72;100.00
18765;BME280;9511;54.242;12.448;2023-01-31T16:11:55;100359.53;;;4.76;100.00
18765;BME280;9511;54.242;12.448;2023-01-31T16:14:25;100372.78;;;4.81;100.00
18765;BME280;9511;54.242;12.448;2023-01-31T16:16:56;100351.19;;;4.87;100.00
18765;BME280;9511;54.242;12.448;2023-01-31T16:19:25;100364.63;;;4.94;100.00
18765;BME280;9511;54.242;12.448;2023-01-31T16:21:54;100375.34;;;5.00;100.00
18765;BME280;9511;54.242;12.448;2023-01-31T16:24:22;100364.88;;;5.00;100.00
18765;BME280;9511;54.242;12.448;2023-01-31T16:26:54;100366.91;;;5.07;100.00
18765;BME280;9511;54.242;12.448;2023-01-31T16:29:32;100349.75;;;5.16;100.00
18765;BME280;9511;54.242;12.448;2023-01-31T16:32:14;100358.44;;;5.15;100.00
18765;BME280;9511;54.242;12.448;2023-01-31T16:34:42;100352.44;;;5.17;100.00
18765;BME280;9511;54.242;12.448;2023-01-31T16:37:09;100346.16;;;5.14;100.00
18765;BME280;9511;54.242;12.448;2023-01-31T16:39:39;100352.13;;;5.10;100.00
18765;BME280;9511;54.242;12.448;2023-01-31T16:42:20;100361.66;;;5.07;100.00
18765;BME280;9511;54.242;12.448;2023-01-31T16:44:52;100362.53;;;5.08;100.00
18765;BME280;9511;54.242;12.448;2023-01-31T16:47:31;100353.09;;;5.12;100.00
18765;BME280;9511;54.242;12.448;2023-01-31T16:50:29;100362.94;;;5.17;100.00
18765;BME280;9511;54.242;12.448;2023-01-31T16:53:15;100350.81;;;5.21;100.00
18765;BME280;9511;54.242;12.448;2023-01-31T16:55:42;100346.47;;;5.21;100.00
18765;BME280;9511;54.242;12.448;2023-01-31T16:58:11;100343.84;;;5.21;100.00
18765;BME280;9511;54.242;12.448;2023-01-31T17:00:40;100428.13;;;5.30;100.00
18765;BME280;9511;54.242;12.448;2023-01-31T17:03:13;100451.47;;;4.42;100.00
18765;BME280;9511;54.242;12.448;2023-01-31T17:05:44;100460.41;;;3.54;100.00
18765;BME280;9511;54.242;12.448;2023-01-31T17:08:14;100445.69;;;3.20;100.00
18765;BME280;9511;54.242;12.448;2023-01-31T17:10:43;100454.63;;;2.89;100.00
18765;BME280;9511;54.242;12.448;2023-01-31T17:13:18;100458.69;;;2.66;100.00
18765;BME280;9511;54.242;12.448;2023-01-31T17:15:48;100478.50;;;2.63;100.00
18765;BME280;9511;54.242;12.448;2023-01-31T17:18:16;100478.38;;;2.60;100.00
18765;BME280;9511;54.242;12.448;2023-01-31T17:20:45;100457.97;;;2.53;100.00
18765;BME280;9511;54.242;12.448;2023-01-31T17:23:13;100449.66;;;2.60;100.00